Aviation Digital Data Service (ADDS)

Output produced by TAFs form (0646 UTC 18 February 2018)
found at http://www.aviationweather.gov/adds/tafs/
 
METAR text: ROIG 180600Z 12008KT 9999 SCT025 BKN/// 23/16 Q1017
Conditions at: ROIG (ISHIGAKIJIMA ISL, JP) observed 0600 UTC 18 February 2018
Temperature: 23.0°C (73°F)
Dewpoint: 16.0°C (61°F) [RH = 65%]
Pressure (altimeter): 30.03 inches Hg (1017.0 mb)
Winds: from the ESE (120 degrees) at 9 MPH (8 knots; 4.2 m/s)
Visibility: 6 or more miles (10+ km)
Ceiling: at least 12,000 feet AGL
Clouds: scattered clouds at 2500 feet AGL
Weather: no significant weather observed at this time

Forecast for: ROIG (ISHIGAKIJIMA ISL, JP)
Text: TAF ROIG 180518Z 1806/1912 11010KT 9999 SCT025
Forecast period: 0600 UTC 18 February 2018 to 0000 UTC 19 February 2018
Forecast type: FROM: standard forecast or significant change
Winds: from the ESE (110 degrees) at 12 MPH (10 knots; 5.2 m/s)
Visibility: 6 or more miles (10+ km)
Clouds: scattered clouds at 2500 feet AGL
Weather: no significant weather forecast for this period
Text: BECMG 1900/1903 15007KT
Forecast period: 0000 to 1200 UTC 19 February 2018
Forecast type: BECOMING: Conditions expected to become as follows by 0300 UTC 19 February 2018
Winds: from the SSE (150 degrees) at 8 MPH (7 knots; 3.6 m/s)
Visibility: 6 or more miles (10+ km)
Clouds: scattered clouds at 2500 feet AGL
Weather: no significant weather forecast for this period